Time;durP1;ratioP1;P1;durP2;ratioP2;P2;SDS_P1;SDS_P2;PMS_P1;PMS_P2;Temp;Humidity;BMP_temperature;BMP_pressure;BME280_temperature;BME280_humidity;BME280_pressure;Samples;Min_cycle;Max_cycle;Signal;HPM_P1;HPM_P2
2022/05/29 00:00:01;;;;;;;;;;;10.60;99.90;;;;;;4787414;29;20396;-85
2022/05/29 00:02:27;;;;;;;;;;;10.70;99.90;;;;;;4781884;29;20020;-86
2022/05/29 00:04:52;;;;;;;;;;;10.70;99.90;;;;;;4788819;30;20398;-86
2022/05/29 00:07:19;;;;;;;;;;;10.60;99.90;;;;;;4771968;30;20351;-86
2022/05/29 00:09:49;;;;;;;;;;;10.60;99.90;;;;;;4788644;29;20328;-85
2022/05/29 00:12:16;;;;;;;;;;;10.60;99.90;;;;;;4787968;29;20447;-86
2022/05/29 00:14:42;;;;;;;;;;;10.70;99.90;;;;;;4788735;29;20349;-86
2022/05/29 00:17:08;;;;;;;;;;;10.80;99.90;;;;;;4775486;30;19965;-86
2022/05/29 00:19:34;;;;;;;;;;;10.40;99.90;;;;;;4788127;29;20383;-85
2022/05/29 00:22:00;;;;;;;;;;;10.80;99.90;;;;;;4788220;29;19926;-86
2022/05/29 00:24:26;;;;;;;;;;;10.80;99.90;;;;;;4772022;30;19963;-85
2022/05/29 00:26:51;;;;;;;;;;;10.90;99.90;;;;;;4787968;29;19929;-86
2022/05/29 00:29:17;;;;;;;;;;;10.80;99.90;;;;;;4771808;30;19925;-85
2022/05/29 00:31:42;;;;;;;;;;;10.80;99.90;;;;;;4787881;30;19944;-86
2022/05/29 00:34:08;;;;;;;;;;;10.70;99.90;;;;;;4787700;29;20295;-86
2022/05/29 00:36:37;;;;;;;;;;;11.10;99.90;;;;;;4788085;29;19929;-85
2022/05/29 00:39:03;;;;;;;;;;;10.60;99.90;;;;;;4769344;30;20291;-86
2022/05/29 00:41:28;;;;;;;;;;;10.50;99.90;;;;;;4770554;30;19926;-85
2022/05/29 00:44:15;;;;;;;;;;;10.60;99.90;;;;;;4787791;29;19929;-85
2022/05/29 00:46:48;;;;;;;;;;;10.50;99.90;;;;;;4780918;29;19925;-87
2022/05/29 00:49:15;;;;;;;;;;;10.50;99.90;;;;;;4787899;29;19930;-86
2022/05/29 00:51:47;;;;;;;;;;;10.70;99.90;;;;;;4780361;30;19964;-86
2022/05/29 00:54:13;;;;;;;;;;;10.60;99.90;;;;;;4786223;29;19929;-88
2022/05/29 00:56:39;;;;;;;;;;;10.70;99.90;;;;;;4787711;29;19926;-86
2022/05/29 00:59:12;;;;;;;;;;;10.70;99.90;;;;;;4772226;30;20358;-86
2022/05/29 01:01:38;;;;;;;;;;;10.70;99.90;;;;;;4771475;30;19944;-86
2022/05/29 01:04:03;;;;;;;;;;;10.80;99.90;;;;;;4787696;29;19925;-86
2022/05/29 01:06:29;;;;;;;;;;;10.70;99.90;;;;;;4771648;30;19925;-86
2022/05/29 01:08:55;;;;;;;;;;;10.10;99.90;;;;;;4787342;29;19926;-86
2022/05/29 01:11:39;;;;;;;;;;;11.50;99.90;;;;;;4771260;30;19931;-86
2022/05/29 01:14:28;;;;;;;;;;;10.90;99.90;;;;;;4787313;29;19983;-86
2022/05/29 01:17:07;;;;;;;;;;;11.00;99.90;;;;;;4786284;29;19925;-86
2022/05/29 01:19:38;;;;;;;;;;;11.20;99.90;;;;;;4787384;30;19987;-86
2022/05/29 01:22:04;;;;;;;;;;;11.20;99.90;;;;;;4786818;29;19926;-87
2022/05/29 01:24:30;;;;;;;;;;;11.20;99.90;;;;;;4786124;29;19926;-86
2022/05/29 01:26:58;;;;;;;;;;;11.20;99.90;;;;;;4787298;30;19960;-86
2022/05/29 01:29:44;;;;;;;;;;;11.00;99.90;;;;;;4787482;29;20380;-85
2022/05/29 01:32:15;;;;;;;;;;;10.90;99.90;;;;;;4765776;29;20383;-86
2022/05/29 01:34:46;;;;;;;;;;;10.30;99.90;;;;;;4786755;29;19922;-85
2022/05/29 01:37:11;;;;;;;;;;;10.80;99.90;;;;;;4770736;30;20371;-86
2022/05/29 01:40:06;;;;;;;;;;;10.70;99.90;;;;;;4787331;29;20009;-86
2022/05/29 01:42:36;;;;;;;;;;;10.80;99.90;;;;;;4709418;30;19935;-86
2022/05/29 01:45:21;;;;;;;;;;;11.50;99.90;;;;;;4723892;30;19927;-85
2022/05/29 01:47:52;;;;;;;;;;;10.80;99.90;;;;;;4731393;30;19926;-86
2022/05/29 01:50:23;;;;;;;;;;;10.80;99.90;;;;;;4722159;30;19934;-86
2022/05/29 01:52:57;;;;;;;;;;;10.90;99.90;;;;;;4728027;30;19926;-86
2022/05/29 01:55:30;;;;;;;;;;;10.90;99.90;;;;;;4721041;30;19926;-85
2022/05/29 01:57:59;;;;;;;;;;;10.80;99.90;;;;;;4730357;30;20340;-85
2022/05/29 02:00:25;;;;;;;;;;;10.80;99.90;;;;;;4724821;30;19927;-87
2022/05/29 02:03:17;;;;;;;;;;;10.80;99.90;;;;;;4724951;30;19933;-86
2022/05/29 02:05:45;;;;;;;;;;;10.90;99.90;;;;;;4718039;30;19933;-86
2022/05/29 02:08:30;;;;;;;;;;;11.00;99.90;;;;;;4723863;30;20436;-86
2022/05/29 02:10:58;;;;;;;;;;;11.10;99.90;;;;;;4722151;30;19926;-86
2022/05/29 02:13:27;;;;;;;;;;;11.00;99.90;;;;;;4722368;30;19977;-87
2022/05/29 02:16:01;;;;;;;;;;;11.10;99.90;;;;;;4711365;30;19926;-87
2022/05/29 02:18:31;;;;;;;;;;;11.30;99.90;;;;;;4728018;30;19956;-86
2022/05/29 02:21:01;;;;;;;;;;;11.30;99.90;;;;;;4787172;29;19929;-86
2022/05/29 02:23:30;;;;;;;;;;;11.80;99.90;;;;;;4786787;29;19921;-86
2022/05/29 02:25:56;;;;;;;;;;;11.00;99.90;;;;;;4786948;30;19970;-86
2022/05/29 02:28:26;;;;;;;;;;;11.10;99.90;;;;;;4786571;30;19930;-86
2022/05/29 02:31:08;;;;;;;;;;;11.10;99.90;;;;;;4786753;29;19929;-86
2022/05/29 02:33:36;;;;;;;;;;;11.00;99.90;;;;;;4786992;30;19948;-86
2022/05/29 02:36:29;;;;;;;;;;;10.90;99.90;;;;;;4783736;29;20436;-86
2022/05/29 02:39:00;;;;;;;;;;;10.80;99.90;;;;;;4773473;30;20298;-86
2022/05/29 02:41:32;;;;;;;;;;;10.60;99.90;;;;;;4790404;29;19930;-86
2022/05/29 02:44:13;;;;;;;;;;;10.60;99.90;;;;;;4790067;29;19929;-86
2022/05/29 02:46:42;;;;;;;;;;;10.70;99.90;;;;;;4774088;30;19957;-85
2022/05/29 02:49:26;;;;;;;;;;;10.60;99.90;;;;;;4789521;29;20021;-86
2022/05/29 02:51:54;;;;;;;;;;;10.50;99.90;;;;;;4787713;29;19936;-85
2022/05/29 02:54:25;;;;;;;;;;;10.50;99.90;;;;;;4789739;30;19925;-86
2022/05/29 02:56:54;;;;;;;;;;;10.40;99.90;;;;;;4789722;30;19925;-86
2022/05/29 02:59:25;;;;;;;;;;;10.70;99.90;;;;;;4784254;29;19925;-86
2022/05/29 03:02:09;;;;;;;;;;;10.50;99.90;;;;;;4789775;29;19925;-86
2022/05/29 03:04:37;;;;;;;;;;;10.60;99.90;;;;;;4783898;29;20440;-88
2022/05/29 03:07:09;;;;;;;;;;;10.60;99.90;;;;;;4789544;29;19925;-86
2022/05/29 03:09:37;;;;;;;;;;;10.60;99.90;;;;;;4773184;30;19933;-86
2022/05/29 03:12:08;;;;;;;;;;;10.70;99.90;;;;;;4773563;30;19926;-86
2022/05/29 03:14:41;;;;;;;;;;;10.60;99.90;;;;;;4789526;29;20363;-86
2022/05/29 03:17:24;;;;;;;;;;;10.60;99.90;;;;;;4789388;29;19925;-86
2022/05/29 03:20:01;;;;;;;;;;;10.60;99.90;;;;;;4783287;30;19927;-86
2022/05/29 03:22:41;;;;;;;;;;;10.50;99.90;;;;;;4789304;29;19992;-86
2022/05/29 03:25:09;;;;;;;;;;;10.50;99.90;;;;;;4773269;30;19931;-86
2022/05/29 03:27:41;;;;;;;;;;;10.80;99.90;;;;;;4788892;29;19922;-85
2022/05/29 03:30:09;;;;;;;;;;;10.60;99.90;;;;;;4757932;30;20299;-86
2022/05/29 03:32:35;;;;;;;;;;;10.60;99.90;;;;;;4772746;30;19932;-85
2022/05/29 03:35:16;;;;;;;;;;;10.50;99.90;;;;;;4788729;29;19933;-85
2022/05/29 03:37:42;;;;;;;;;;;10.40;99.90;;;;;;4788729;30;19986;-92
2022/05/29 03:40:07;;;;;;;;;;;10.60;99.90;;;;;;4789048;29;19930;-86
2022/05/29 03:42:33;;;;;;;;;;;10.40;99.90;;;;;;4772285;30;19932;-85
2022/05/29 03:44:59;;;;;;;;;;;10.40;99.90;;;;;;4772571;30;20024;-91
2022/05/29 03:47:24;;;;;;;;;;;10.30;99.90;;;;;;4788385;29;20298;-92
2022/05/29 03:49:50;;;;;;;;;;;11.10;99.90;;;;;;4771009;30;19979;-92
2022/05/29 03:52:16;;;;;;;;;;;10.50;99.90;;;;;;4788487;29;19925;-93
2022/05/29 03:54:41;;;;;;;;;;;10.30;99.90;;;;;;4788862;29;20390;-93
2022/05/29 03:57:07;;;;;;;;;;;10.90;99.90;;;;;;4789022;29;19964;-91
2022/05/29 03:59:32;;;;;;;;;;;10.50;99.90;;;;;;4773138;30;19959;-92
2022/05/29 04:01:58;;;;;;;;;;;10.40;99.90;;;;;;4788797;30;19926;-92
2022/05/29 04:04:23;;;;;;;;;;;10.50;99.90;;;;;;4789283;29;19921;-92
2022/05/29 04:06:49;;;;;;;;;;;10.50;99.90;;;;;;4763813;30;20379;-92
2022/05/29 04:12:05;;;;;;;;;;;10.70;99.90;;;;;;4788816;29;20454;-92
2022/05/29 04:14:34;;;;;;;;;;;10.70;99.90;;;;;;4789151;29;20008;-91
2022/05/29 04:17:00;;;;;;;;;;;10.50;99.90;;;;;;4793185;29;19926;-91
2022/05/29 04:19:26;;;;;;;;;;;10.60;99.90;;;;;;4792860;30;19928;-93
2022/05/29 04:21:52;;;;;;;;;;;10.60;99.90;;;;;;4788511;29;19929;-93
2022/05/29 04:24:20;;;;;;;;;;;10.70;99.90;;;;;;4772508;29;20379;-91
2022/05/29 04:26:49;;;;;;;;;;;10.70;99.90;;;;;;4787989;29;19929;-92
2022/05/29 04:29:15;;;;;;;;;;;10.50;99.90;;;;;;4772477;30;19929;-94
2022/05/29 04:32:59;;;;;;;;;;;10.50;99.90;;;;;;4772329;30;19925;-92
2022/05/29 04:34:27;;;;;;;;;;;11.10;99.90;;;;;;4788342;30;19975;-92
2022/05/29 04:36:52;;;;;;;;;;;10.50;99.90;;;;;;4787739;29;19930;-91
2022/05/29 04:39:18;;;;;;;;;;;10.80;99.90;;;;;;4788658;29;20330;-90
2022/05/29 04:41:43;;;;;;;;;;;10.70;99.90;;;;;;4788194;30;19932;-92
2022/05/29 04:44:09;;;;;;;;;;;10.60;99.90;;;;;;4788050;29;19932;-92
2022/05/29 04:46:34;;;;;;;;;;;11.20;99.90;;;;;;4774895;30;20405;-92
2022/05/29 04:49:00;;;;;;;;;;;10.60;99.90;;;;;;4771910;30;19956;-91
2022/05/29 04:51:26;;;;;;;;;;;10.20;99.90;;;;;;4771873;29;19931;-90
2022/05/29 04:53:51;;;;;;;;;;;10.60;99.90;;;;;;4788033;29;20280;-86
2022/05/29 04:56:17;;;;;;;;;;;10.70;99.90;;;;;;4787421;30;19988;-88
2022/05/29 04:58:42;;;;;;;;;;;10.80;99.90;;;;;;4775253;30;19925;-89
2022/05/29 05:01:10;;;;;;;;;;;10.80;99.90;;;;;;4771994;30;19978;-86
2022/05/29 05:03:35;;;;;;;;;;;11.30;99.90;;;;;;4771887;30;20358;-86
2022/05/29 05:06:01;;;;;;;;;;;11.00;99.90;;;;;;4770910;30;19929;-85
2022/05/29 05:08:27;;;;;;;;;;;10.80;99.90;;;;;;4787574;30;19956;-87
2022/05/29 05:10:52;;;;;;;;;;;10.90;99.90;;;;;;4788007;30;19925;-86
2022/05/29 05:13:18;;;;;;;;;;;10.90;99.90;;;;;;4786166;29;19964;-87
2022/05/29 05:15:44;;;;;;;;;;;11.00;99.90;;;;;;4787737;29;19941;-86
2022/05/29 05:18:09;;;;;;;;;;;10.80;99.90;;;;;;4786842;29;19929;-86
2022/05/29 05:20:36;;;;;;;;;;;10.80;99.90;;;;;;4787687;29;19974;-86
2022/05/29 05:23:02;;;;;;;;;;;10.80;99.90;;;;;;4771641;29;19930;-86
2022/05/29 05:25:27;;;;;;;;;;;10.80;99.90;;;;;;4771281;30;19925;-85
2022/05/29 05:27:53;;;;;;;;;;;10.80;99.90;;;;;;4770637;30;19926;-86
2022/05/29 05:30:19;;;;;;;;;;;10.90;99.90;;;;;;4771216;30;19971;-86
2022/05/29 05:32:44;;;;;;;;;;;10.90;99.90;;;;;;4771768;30;20359;-87
2022/05/29 05:35:10;;;;;;;;;;;11.00;99.90;;;;;;4788366;29;19925;-86
2022/05/29 05:37:36;;;;;;;;;;;10.80;99.90;;;;;;4770926;30;20020;-87
2022/05/29 05:40:08;;;;;;;;;;;11.60;99.90;;;;;;4773248;30;19948;-86
2022/05/29 05:42:34;;;;;;;;;;;10.90;99.90;;;;;;4772964;30;20012;-90
2022/05/29 05:44:59;;;;;;;;;;;11.00;99.90;;;;;;4772332;30;19964;-91
2022/05/29 05:47:25;;;;;;;;;;;10.90;99.90;;;;;;4787952;30;19936;-90
2022/05/29 05:49:50;;;;;;;;;;;11.00;99.90;;;;;;4786991;29;20043;-91
2022/05/29 05:52:17;;;;;;;;;;;11.10;99.90;;;;;;4788492;29;19925;-92
2022/05/29 05:54:43;;;;;;;;;;;11.20;99.90;;;;;;4789387;29;19989;-92
2022/05/29 05:57:08;;;;;;;;;;;11.50;99.90;;;;;;4789524;29;19964;-86
2022/05/29 05:59:35;;;;;;;;;;;11.20;99.90;;;;;;4771189;30;19933;-86
2022/05/29 06:02:00;;;;;;;;;;;11.30;99.90;;;;;;4771260;30;19925;-86
2022/05/29 06:04:26;;;;;;;;;;;12.30;99.90;;;;;;4771094;30;20336;-85
2022/05/29 06:06:51;;;;;;;;;;;11.40;99.90;;;;;;4787414;30;19929;-87
2022/05/29 06:09:19;;;;;;;;;;;11.40;99.90;;;;;;4786832;29;19944;-85
2022/05/29 06:11:45;;;;;;;;;;;11.60;99.90;;;;;;4775097;30;20291;-86
2022/05/29 06:14:11;;;;;;;;;;;11.60;99.90;;;;;;4790456;29;20016;-86
2022/05/29 06:16:36;;;;;;;;;;;11.50;99.90;;;;;;4790941;29;19931;-86
2022/05/29 06:19:04;;;;;;;;;;;11.50;99.90;;;;;;4790572;29;20019;-86
2022/05/29 06:21:30;;;;;;;;;;;11.40;99.90;;;;;;4789611;29;19932;-86
2022/05/29 06:23:56;;;;;;;;;;;11.50;99.90;;;;;;4790269;29;19926;-86
2022/05/29 06:26:22;;;;;;;;;;;11.40;99.90;;;;;;4790277;29;19929;-85
2022/05/29 06:28:48;;;;;;;;;;;11.80;99.90;;;;;;4789771;29;19998;-86
2022/05/29 06:31:13;;;;;;;;;;;12.20;99.90;;;;;;4789775;29;19973;-87
2022/05/29 06:33:39;;;;;;;;;;;11.40;99.90;;;;;;4790322;29;19929;-85
2022/05/29 06:36:09;;;;;;;;;;;11.40;99.90;;;;;;4774833;30;19925;-88
2022/05/29 06:38:35;;;;;;;;;;;11.40;99.90;;;;;;4789884;29;19933;-85
2022/05/29 06:41:03;;;;;;;;;;;12.00;99.90;;;;;;4774021;30;19921;-84
2022/05/29 06:43:29;;;;;;;;;;;11.80;99.90;;;;;;4789364;29;20401;-86
2022/05/29 06:45:57;;;;;;;;;;;11.30;99.90;;;;;;4789684;29;19960;-84
2022/05/29 06:48:23;;;;;;;;;;;11.20;99.90;;;;;;4789417;30;20418;-84
2022/05/29 06:50:49;;;;;;;;;;;11.20;99.90;;;;;;4772446;30;19973;-85
2022/05/29 06:53:14;;;;;;;;;;;11.20;99.90;;;;;;4789303;29;20344;-86
2022/05/29 06:55:40;;;;;;;;;;;11.30;99.90;;;;;;4774208;30;19944;-85
2022/05/29 06:58:06;;;;;;;;;;;11.70;99.90;;;;;;4789990;29;19929;-84
2022/05/29 07:08:44;;;;;;;;;;;10.80;99.90;;;;;;4788834;30;20398;-84
2022/05/29 07:11:16;;;;;;;;;;;11.20;99.90;;;;;;4773207;30;19929;-88
2022/05/29 07:13:42;;;;;;;;;;;11.20;99.90;;;;;;4764930;30;19921;-85
2022/05/29 07:16:08;;;;;;;;;;;11.30;99.90;;;;;;4789403;29;20404;-85
2022/05/29 07:18:34;;;;;;;;;;;11.00;99.90;;;;;;4773087;30;19928;-84
2022/05/29 07:21:00;;;;;;;;;;;11.00;99.90;;;;;;4771704;30;19933;-85
2022/05/29 07:23:26;;;;;;;;;;;11.00;99.90;;;;;;4789196;29;20379;-85
2022/05/29 07:25:51;;;;;;;;;;;11.00;99.90;;;;;;4788842;29;19982;-85
2022/05/29 07:28:17;;;;;;;;;;;10.80;99.90;;;;;;4789610;30;19925;-85
2022/05/29 07:30:43;;;;;;;;;;;10.70;99.90;;;;;;4772959;30;20391;-84
2022/05/29 07:33:09;;;;;;;;;;;10.80;99.90;;;;;;4773101;30;19984;-85
2022/05/29 07:35:35;;;;;;;;;;;10.90;99.90;;;;;;4789846;30;19981;-85
2022/05/29 07:38:01;;;;;;;;;;;11.00;99.90;;;;;;4788473;30;19925;-84
2022/05/29 07:40:26;;;;;;;;;;;11.10;99.90;;;;;;4789394;29;19974;-85
2022/05/29 07:45:36;;;;;;;;;;;11.20;99.90;;;;;;4773374;30;20283;-85
2022/05/29 07:48:02;;;;;;;;;;;11.20;99.90;;;;;;4772607;30;19929;-86
2022/05/29 07:50:27;;;;;;;;;;;11.40;99.90;;;;;;4789051;29;19974;-85
2022/05/29 07:52:54;;;;;;;;;;;11.90;99.90;;;;;;4788111;30;19929;-85
2022/05/29 07:55:20;;;;;;;;;;;11.60;99.90;;;;;;4788817;29;19971;-86
2022/05/29 07:57:46;;;;;;;;;;;11.30;99.90;;;;;;4773231;30;19926;-85
2022/05/29 08:00:14;;;;;;;;;;;11.40;99.90;;;;;;4788265;29;19933;-85
2022/05/29 08:02:39;;;;;;;;;;;11.50;99.90;;;;;;4778321;29;19933;-85
2022/05/29 08:05:06;;;;;;;;;;;11.60;99.90;;;;;;4788517;30;19925;-85
2022/05/29 08:07:31;;;;;;;;;;;11.60;99.90;;;;;;4788660;29;19936;-85
2022/05/29 08:09:57;;;;;;;;;;;11.70;99.90;;;;;;4771978;30;20401;-85
2022/05/29 08:12:23;;;;;;;;;;;11.60;99.90;;;;;;4787987;30;19925;-85
2022/05/29 08:14:48;;;;;;;;;;;11.60;99.90;;;;;;4788645;29;19982;-85
2022/05/29 08:17:14;;;;;;;;;;;11.40;99.90;;;;;;4788302;29;20016;-85
2022/05/29 08:19:40;;;;;;;;;;;12.20;99.90;;;;;;4788409;29;19932;-85
2022/05/29 08:22:05;;;;;;;;;;;11.10;99.90;;;;;;4787998;30;19925;-85
2022/05/29 08:33:00;;;;;;;;;;;11.20;99.90;;;;;;4787824;29;19932;-85
2022/05/29 08:35:25;;;;;;;;;;;11.20;99.90;;;;;;4787704;29;19925;-85
2022/05/29 08:37:51;;;;;;;;;;;11.30;99.90;;;;;;4788366;29;20449;-84
2022/05/29 08:40:17;;;;;;;;;;;11.40;99.90;;;;;;4787772;29;19926;-84
2022/05/29 08:42:42;;;;;;;;;;;11.50;99.90;;;;;;4787954;29;20290;-85
2022/05/29 08:45:08;;;;;;;;;;;11.80;99.90;;;;;;4788137;29;20042;-85
2022/05/29 08:47:34;;;;;;;;;;;11.60;99.90;;;;;;4787279;29;19925;-85
2022/05/29 08:50:00;;;;;;;;;;;11.70;99.90;;;;;;4787775;29;20349;-91
2022/05/29 08:52:26;;;;;;;;;;;11.70;99.90;;;;;;4771297;30;19925;-86
2022/05/29 08:55:06;;;;;;;;;;;11.80;99.90;;;;;;4771940;30;19972;-87
2022/05/29 08:57:38;;;;;;;;;;;11.60;99.90;;;;;;4787511;29;19932;-86
2022/05/29 09:00:06;;;;;;;;;;;11.70;99.90;;;;;;4788163;29;19932;-84
2022/05/29 09:02:50;;;;;;;;;;;12.00;99.90;;;;;;4782638;29;19929;-86
2022/05/29 09:05:16;;;;;;;;;;;11.70;99.90;;;;;;4787477;29;20379;-89
2022/05/29 09:07:42;;;;;;;;;;;11.70;99.90;;;;;;4770979;29;19982;-85
2022/05/29 09:10:20;;;;;;;;;;;11.60;99.90;;;;;;4787819;29;19929;-84
2022/05/29 09:12:56;;;;;;;;;;;11.50;99.90;;;;;;4787428;30;19933;-85
2022/05/29 09:15:27;;;;;;;;;;;11.70;99.90;;;;;;4788387;29;19929;-86
2022/05/29 09:17:54;;;;;;;;;;;11.60;99.90;;;;;;4787290;29;19939;-85
2022/05/29 09:20:20;;;;;;;;;;;11.70;99.90;;;;;;4787389;29;19925;-85
2022/05/29 09:22:46;;;;;;;;;;;12.10;99.90;;;;;;4785188;30;20287;-83
2022/05/29 09:25:21;;;;;;;;;;;12.10;99.90;;;;;;4787325;30;19932;-84
2022/05/29 09:27:50;;;;;;;;;;;12.20;99.90;;;;;;4786982;29;20395;-84
2022/05/29 09:30:16;;;;;;;;;;;12.20;99.90;;;;;;4787218;29;20421;-86
2022/05/29 09:32:52;;;;;;;;;;;12.30;99.90;;;;;;4771015;30;20523;-84
2022/05/29 09:35:43;;;;;;;;;;;12.40;99.90;;;;;;4787384;30;19929;-86
2022/05/29 09:38:18;;;;;;;;;;;12.40;99.90;;;;;;4734797;30;20269;-85
2022/05/29 09:40:59;;;;;;;;;;;12.50;99.90;;;;;;4749503;30;19926;-84
2022/05/29 09:43:26;;;;;;;;;;;12.60;99.90;;;;;;4749406;30;20357;-84
2022/05/29 09:45:52;;;;;;;;;;;12.70;99.90;;;;;;4751945;30;20304;-85
2022/05/29 09:51:15;;;;;;;;;;;13.10;99.90;;;;;;4752977;30;20387;-84
2022/05/29 09:53:43;;;;;;;;;;;12.90;99.90;;;;;;4752714;30;19930;-84
2022/05/29 09:56:09;;;;;;;;;;;12.90;99.90;;;;;;4752697;30;19965;-85
2022/05/29 09:58:38;;;;;;;;;;;13.00;99.90;;;;;;4738331;30;20000;-84
2022/05/29 10:01:05;;;;;;;;;;;13.00;99.90;;;;;;4752795;30;19926;-84
2022/05/29 10:03:33;;;;;;;;;;;13.00;99.90;;;;;;4737964;30;20031;-84
2022/05/29 10:06:21;;;;;;;;;;;12.90;99.90;;;;;;4738180;30;19993;-84
2022/05/29 10:08:47;;;;;;;;;;;12.90;99.90;;;;;;4737549;30;20368;-84
2022/05/29 10:11:21;;;;;;;;;;;13.00;99.90;;;;;;4752095;30;19926;-84
2022/05/29 10:13:46;;;;;;;;;;;12.90;99.90;;;;;;4752967;30;19932;-84
2022/05/29 10:16:13;;;;;;;;;;;13.10;99.90;;;;;;4771046;29;19926;-84
2022/05/29 10:18:40;;;;;;;;;;;13.20;99.90;;;;;;4770119;30;19930;-84
2022/05/29 10:21:08;;;;;;;;;;;13.20;99.90;;;;;;4790065;30;19926;-85
2022/05/29 10:23:37;;;;;;;;;;;13.20;99.90;;;;;;4779088;30;19925;-84
2022/05/29 10:26:15;;;;;;;;;;;13.30;99.90;;;;;;4760755;30;20016;-83
2022/05/29 10:28:41;;;;;;;;;;;13.00;99.90;;;;;;4789755;30;19934;-88
2022/05/29 10:31:19;;;;;;;;;;;13.10;99.90;;;;;;4776102;30;19986;-86
2022/05/29 10:33:59;;;;;;;;;;;13.20;99.90;;;;;;4773639;29;19925;-86
2022/05/29 10:36:27;;;;;;;;;;;13.20;99.90;;;;;;4782571;30;20356;-86
2022/05/29 10:39:04;;;;;;;;;;;12.80;99.90;;;;;;4790069;30;20071;-86
2022/05/29 10:41:31;;;;;;;;;;;12.60;99.90;;;;;;4774476;30;19925;-85
2022/05/29 10:43:57;;;;;;;;;;;13.00;99.90;;;;;;4789877;30;19944;-84
2022/05/29 10:46:24;;;;;;;;;;;12.50;99.90;;;;;;4773028;30;20375;-85
2022/05/29 10:49:10;;;;;;;;;;;13.10;99.90;;;;;;4774114;30;19933;-84
2022/05/29 10:51:52;;;;;;;;;;;12.70;99.90;;;;;;4784518;30;19937;-85
2022/05/29 10:54:21;;;;;;;;;;;12.80;99.90;;;;;;4788792;30;20306;-83
2022/05/29 10:57:06;;;;;;;;;;;13.00;99.90;;;;;;4789417;29;19961;-85
2022/05/29 10:59:46;;;;;;;;;;;13.00;99.90;;;;;;4772611;30;19929;-84
2022/05/29 11:05:52;;;;;;;;;;;13.60;99.90;;;;;;4750538;30;20367;-85
2022/05/29 11:08:17;;;;;;;;;;;13.50;99.90;;;;;;4720811;30;19926;-84
2022/05/29 11:11:01;;;;;;;;;;;13.00;99.90;;;;;;4734252;30;19926;-84
2022/05/29 11:13:42;;;;;;;;;;;12.90;99.90;;;;;;4733165;30;19933;-85
2022/05/29 11:16:16;;;;;;;;;;;12.90;99.90;;;;;;4733139;30;20262;-85
2022/05/29 11:18:50;;;;;;;;;;;13.20;99.90;;;;;;4733953;30;19937;-84
2022/05/29 11:21:34;;;;;;;;;;;13.20;99.90;;;;;;4733700;30;19930;-84
2022/05/29 11:24:06;;;;;;;;;;;13.40;99.90;;;;;;4733862;30;20024;-84
2022/05/29 11:26:46;;;;;;;;;;;13.50;99.90;;;;;;4726708;30;19930;-84
2022/05/29 11:29:33;;;;;;;;;;;13.60;99.90;;;;;;4719122;30;20000;-85
2022/05/29 11:32:04;;;;;;;;;;;13.20;99.90;;;;;;4733138;30;20025;-84
2022/05/29 11:34:30;;;;;;;;;;;13.70;99.90;;;;;;4732960;30;19926;-83
2022/05/29 11:37:01;;;;;;;;;;;13.90;99.90;;;;;;4733440;30;19933;-83
2022/05/29 11:39:36;;;;;;;;;;;13.80;99.90;;;;;;4732888;30;19933;-83
2022/05/29 11:42:06;;;;;;;;;;;13.90;99.90;;;;;;4753992;30;19930;-84
2022/05/29 11:44:40;;;;;;;;;;;13.70;99.90;;;;;;4789037;30;19929;-83
2022/05/29 11:53:01;;;;;;;;;;;13.20;99.90;;;;;;4772753;30;19932;-83
2022/05/29 11:55:29;;;;;;;;;;;13.00;99.90;;;;;;4787697;29;19933;-84
2022/05/29 11:58:07;;;;;;;;;;;12.80;99.90;;;;;;4772440;29;19933;-84
2022/05/29 12:00:49;;;;;;;;;;;12.70;99.90;;;;;;4772890;30;20071;-86
2022/05/29 12:03:15;;;;;;;;;;;12.70;99.90;;;;;;4788276;30;20052;-86
2022/05/29 12:05:47;;;;;;;;;;;12.70;99.90;;;;;;4772341;30;20440;-85
2022/05/29 12:08:24;;;;;;;;;;;12.80;99.90;;;;;;4787981;29;19926;-85
2022/05/29 12:10:53;;;;;;;;;;;12.90;99.90;;;;;;4772478;30;19926;-85
2022/05/29 12:13:24;;;;;;;;;;;12.90;99.90;;;;;;4788617;29;20390;-89
2022/05/29 12:15:54;;;;;;;;;;;13.50;99.90;;;;;;4772473;30;19963;-85
2022/05/29 12:18:20;;;;;;;;;;;13.10;99.90;;;;;;4788540;29;19925;-84
2022/05/29 12:20:49;;;;;;;;;;;12.90;99.90;;;;;;4788157;29;19922;-82
2022/05/29 12:23:28;;;;;;;;;;;12.70;99.90;;;;;;4788418;29;19929;-84
2022/05/29 12:26:00;;;;;;;;;;;12.40;99.90;;;;;;4777610;30;19973;-84
2022/05/29 12:28:38;;;;;;;;;;;12.40;99.90;;;;;;4786524;29;19925;-84
2022/05/29 12:31:06;;;;;;;;;;;12.40;99.90;;;;;;4787896;29;20008;-84
2022/05/29 12:33:32;;;;;;;;;;;12.40;99.90;;;;;;4787191;29;19925;-85
2022/05/29 12:36:01;;;;;;;;;;;12.60;99.90;;;;;;4788039;29;20008;-84
2022/05/29 12:38:26;;;;;;;;;;;12.90;99.90;;;;;;4771922;30;19926;-83
2022/05/29 12:41:02;;;;;;;;;;;13.00;99.90;;;;;;4783358;29;19927;-84
2022/05/29 12:43:43;;;;;;;;;;;12.90;99.90;;;;;;4781244;30;19929;-83
2022/05/29 12:46:22;;;;;;;;;;;13.00;99.90;;;;;;4787674;30;19929;-84
2022/05/29 12:48:53;;;;;;;;;;;13.20;99.90;;;;;;4771681;30;19929;-84
2022/05/29 12:51:28;;;;;;;;;;;13.30;99.90;;;;;;4768769;30;20016;-84
2022/05/29 12:53:54;;;;;;;;;;;13.30;99.90;;;;;;4762124;30;20383;-84
2022/05/29 12:56:46;;;;;;;;;;;13.60;99.90;;;;;;4767263;30;19926;-84
2022/05/29 12:59:14;;;;;;;;;;;13.50;99.90;;;;;;4745241;30;19930;-85
2022/05/29 13:01:55;;;;;;;;;;;13.40;99.90;;;;;;4736755;30;19934;-87
2022/05/29 13:04:36;;;;;;;;;;;13.50;99.90;;;;;;4746242;30;19971;-86
2022/05/29 13:07:14;;;;;;;;;;;13.70;99.90;;;;;;4741062;30;20025;-86
2022/05/29 13:09:48;;;;;;;;;;;13.60;99.90;;;;;;4750546;30;19926;-86
2022/05/29 13:12:16;;;;;;;;;;;13.80;99.90;;;;;;4748866;30;19937;-85
2022/05/29 13:14:47;;;;;;;;;;;13.70;99.90;;;;;;4732853;30;20008;-84
2022/05/29 13:17:21;;;;;;;;;;;13.70;99.90;;;;;;4743783;30;20020;-85
2022/05/29 13:19:53;;;;;;;;;;;13.60;99.90;;;;;;4748609;30;19922;-85
2022/05/29 13:22:18;;;;;;;;;;;13.60;99.90;;;;;;4749827;30;20012;-85
2022/05/29 13:24:46;;;;;;;;;;;13.60;99.90;;;;;;4754118;30;20029;-85
2022/05/29 13:27:12;;;;;;;;;;;13.60;99.90;;;;;;4745964;30;19980;-86
2022/05/29 13:29:38;;;;;;;;;;;13.30;99.90;;;;;;4750083;30;19961;-85
2022/05/29 13:32:12;;;;;;;;;;;13.80;99.90;;;;;;4749672;30;19926;-86
2022/05/29 13:34:39;;;;;;;;;;;13.70;99.90;;;;;;4749450;30;19969;-85
2022/05/29 13:37:09;;;;;;;;;;;13.80;99.90;;;;;;4768219;30;19969;-85
2022/05/29 13:39:51;;;;;;;;;;;13.40;99.90;;;;;;4783117;29;19995;-84
2022/05/29 13:42:23;;;;;;;;;;;13.70;99.90;;;;;;4768154;30;19934;-86
2022/05/29 13:44:48;;;;;;;;;;;13.60;99.90;;;;;;4767948;30;19949;-85
2022/05/29 13:47:20;;;;;;;;;;;13.80;99.90;;;;;;4769319;30;20380;-86
2022/05/29 13:49:51;;;;;;;;;;;13.80;99.90;;;;;;4769746;30;20342;-86
2022/05/29 13:52:20;;;;;;;;;;;13.70;99.90;;;;;;4781601;30;19933;-86
2022/05/29 13:54:59;;;;;;;;;;;13.90;99.90;;;;;;4786125;30;19925;-86
2022/05/29 14:03:58;;;;;;;;;;;14.10;99.90;;;;;;4770251;30;19929;-87
2022/05/29 14:05:43;;;;;;;;;;;13.70;99.90;;;;;;4788161;30;19952;-85
2022/05/29 14:08:18;;;;;;;;;;;13.70;99.90;;;;;;4787628;29;19933;-86
2022/05/29 14:10:49;;;;;;;;;;;13.60;99.90;;;;;;4767761;30;20415;-86
2022/05/29 14:13:25;;;;;;;;;;;13.50;99.90;;;;;;4780670;30;20283;-85
2022/05/29 14:15:51;;;;;;;;;;;13.50;99.90;;;;;;4779269;29;19925;-87
2022/05/29 14:18:31;;;;;;;;;;;13.50;99.90;;;;;;4770769;30;20035;-86
2022/05/29 14:20:59;;;;;;;;;;;13.30;99.90;;;;;;4786738;30;19936;-86
2022/05/29 14:23:31;;;;;;;;;;;13.60;99.90;;;;;;4771507;30;20375;-86
2022/05/29 14:26:15;;;;;;;;;;;13.30;99.90;;;;;;4770393;30;19926;-86
2022/05/29 14:28:46;;;;;;;;;;;13.20;99.90;;;;;;4786908;30;20371;-86
2022/05/29 14:31:18;;;;;;;;;;;13.20;99.90;;;;;;4788151;29;19981;-86
2022/05/29 14:33:54;;;;;;;;;;;13.10;99.90;;;;;;4773312;30;19932;-84
2022/05/29 14:36:25;;;;;;;;;;;13.10;99.90;;;;;;4790336;30;19925;-83
2022/05/29 14:38:51;;;;;;;;;;;13.20;99.90;;;;;;4790011;30;20517;-85
2022/05/29 14:41:26;;;;;;;;;;;13.00;99.90;;;;;;4789438;30;19925;-85
2022/05/29 14:43:52;;;;;;;;;;;13.00;99.90;;;;;;4773831;29;20289;-84
2022/05/29 14:49:03;;;;;;;;;;;13.00;99.90;;;;;;4789563;29;19926;-84
2022/05/29 14:51:35;;;;;;;;;;;13.10;99.90;;;;;;4789354;30;19929;-84
2022/05/29 14:54:03;;;;;;;;;;;12.90;99.90;;;;;;4757196;30;20284;-83
2022/05/29 14:56:55;;;;;;;;;;;12.80;99.90;;;;;;4788861;29;19940;-84
2022/05/29 14:59:30;;;;;;;;;;;12.90;99.90;;;;;;4782280;30;19975;-84
2022/05/29 15:01:56;;;;;;;;;;;12.80;99.90;;;;;;4772782;30;19926;-85
2022/05/29 15:04:28;;;;;;;;;;;12.80;99.90;;;;;;4788868;30;19926;-84
2022/05/29 15:12:37;;;;;;;;;;;12.90;99.90;;;;;;4790003;30;19926;-86
2022/05/29 15:15:18;;;;;;;;;;;13.00;99.90;;;;;;4773872;30;19926;-86
2022/05/29 15:17:44;;;;;;;;;;;13.00;99.90;;;;;;4789403;29;19960;-86
2022/05/29 15:25:43;;;;;;;;;;;12.80;99.90;;;;;;4787623;29;19926;-86